createdAt,value
2022-11-20T00:01:59.793Z,100037.77
2022-11-20T00:06:05.251Z,100035.25
2022-11-20T00:10:08.943Z,100033.39
2022-11-20T00:14:12.378Z,100029.63
2022-11-20T00:18:15.743Z,100033.33
2022-11-20T00:22:19.004Z,100033.89
2022-11-20T00:26:23.950Z,100029.55
2022-11-20T00:30:27.557Z,100027.59
2022-11-20T00:34:31.026Z,100024.21
2022-11-20T00:38:35.073Z,100027.02
2022-11-20T00:42:38.423Z,100026.65
2022-11-20T00:46:41.847Z,100029.88
2022-11-20T00:50:45.160Z,100027.23
2022-11-20T00:54:48.498Z,100026.84
2022-11-20T00:58:51.827Z,100019.50
2022-11-20T01:02:57.103Z,100018.71
2022-11-20T01:07:00.431Z,100009.50
2022-11-20T01:11:09.509Z,100007.91
2022-11-20T01:15:12.842Z,100002.51
2022-11-20T01:19:21.305Z,100005.14
2022-11-20T01:23:24.833Z,100004.59
2022-11-20T01:27:28.256Z,100009.55
2022-11-20T01:31:34.808Z,100005.76
2022-11-20T01:35:38.175Z,100002.63
2022-11-20T01:39:41.562Z,99996.58
2022-11-20T01:43:44.874Z,99994.89
2022-11-20T01:47:48.183Z,99993.08
2022-11-20T01:51:58.545Z,99988.65
2022-11-20T01:56:06.827Z,99989.20
2022-11-20T02:00:14.628Z,99982.73
2022-11-20T02:04:18.107Z,99982.58
2022-11-20T02:08:23.190Z,99979.59
2022-11-20T02:12:45.153Z,99981.48
2022-11-20T02:16:50.714Z,99979.52
2022-11-20T02:21:22.759Z,99980.92
2022-11-20T02:25:28.351Z,99982.96
2022-11-20T02:29:40.715Z,99985.15
2022-11-20T02:33:44.021Z,99986.27
2022-11-20T02:37:54.368Z,99980.73
2022-11-20T02:41:58.487Z,99982.29
2022-11-20T02:46:01.888Z,99982.75
2022-11-20T02:50:06.308Z,99978.83
2022-11-20T02:54:09.618Z,99982.29
2022-11-20T02:58:12.966Z,99989.86
2022-11-20T03:02:16.324Z,99984.60
2022-11-20T03:06:19.650Z,99980.71
2022-11-20T03:10:22.990Z,99978.77
2022-11-20T03:14:26.348Z,99969.33
2022-11-20T03:18:30.192Z,99964.99
2022-11-20T03:22:33.491Z,99965.02
2022-11-20T03:26:36.878Z,99963.44
2022-11-20T03:30:40.199Z,99963.83
2022-11-20T03:34:43.580Z,99960.58
2022-11-20T03:38:47.700Z,99965.32
2022-11-20T03:42:51.069Z,99960.27
2022-11-20T03:46:54.373Z,99955.34
2022-11-20T03:51:17.917Z,99957.50
2022-11-20T03:55:21.260Z,99959.13
2022-11-20T03:59:24.527Z,99960.80
2022-11-20T04:03:27.861Z,99957.94
2022-11-20T04:07:31.163Z,99959.02
2022-11-20T04:11:37.705Z,99960.02
2022-11-20T04:15:41.039Z,99957.45
2022-11-20T04:19:44.312Z,99955.09
2022-11-20T04:23:47.627Z,99946.52
2022-11-20T04:27:50.962Z,99949.47
2022-11-20T04:31:54.290Z,99941.52
2022-11-20T04:36:02.898Z,99936.71
2022-11-20T04:40:06.820Z,99938.41
2022-11-20T04:44:10.294Z,99929.43
2022-11-20T04:48:13.601Z,99922.00
2022-11-20T04:52:16.874Z,99911.92
2022-11-20T04:56:20.260Z,99906.98
2022-11-20T05:00:23.622Z,99902.31
2022-11-20T05:04:27.457Z,99902.23
2022-11-20T05:08:31.923Z,99896.33
2022-11-20T05:12:35.812Z,99893.48
2022-11-20T05:16:39.233Z,99896.88
2022-11-20T05:20:42.615Z,99894.88
2022-11-20T05:24:45.872Z,99893.02
2022-11-20T05:28:50.382Z,99895.35
2022-11-20T05:32:53.710Z,99895.87
2022-11-20T05:36:57.024Z,99891.29
2022-11-20T05:41:12.801Z,99889.88
2022-11-20T05:45:16.209Z,99891.50
2022-11-20T05:49:19.766Z,99887.83
2022-11-20T05:53:24.762Z,99888.51
2022-11-20T05:57:29.801Z,99887.75
2022-11-20T06:01:33.107Z,99889.02
2022-11-20T06:05:36.386Z,99883.36
2022-11-20T06:09:39.728Z,99880.50
2022-11-20T06:13:43.779Z,99876.83
2022-11-20T06:17:47.083Z,99878.50
2022-11-20T06:21:53.206Z,99883.59
2022-11-20T06:25:56.515Z,99884.20
2022-11-20T06:29:59.789Z,99879.97
2022-11-20T06:34:03.184Z,99877.95
2022-11-20T06:38:06.591Z,99873.42
2022-11-20T06:42:09.940Z,99873.80
2022-11-20T06:46:16.105Z,99872.73
2022-11-20T06:50:19.478Z,99876.52
2022-11-20T06:54:22.790Z,99878.14
2022-11-20T06:58:29.445Z,99873.55
2022-11-20T07:02:32.883Z,99865.94
2022-11-20T07:06:36.377Z,99868.45
2022-11-20T07:10:39.952Z,99868.73
2022-11-20T07:14:43.484Z,99860.09
2022-11-20T07:18:50.538Z,99858.46
2022-11-20T07:22:57.252Z,99859.13
2022-11-20T07:27:00.626Z,99859.18
2022-11-20T07:31:04.344Z,99854.74
2022-11-20T07:35:07.911Z,99850.02
2022-11-20T07:39:11.210Z,99850.21
2022-11-20T07:43:14.511Z,99840.98
2022-11-20T07:47:19.164Z,99838.73
2022-11-20T07:51:22.487Z,99841.14
2022-11-20T07:55:25.957Z,99839.05
2022-11-20T07:59:29.356Z,99842.61
2022-11-20T08:03:33.097Z,99846.63
2022-11-20T08:07:44.945Z,99846.20
2022-11-20T08:12:07.132Z,99847.88
2022-11-20T08:16:10.494Z,99845.41
2022-11-20T08:20:14.137Z,99843.04
2022-11-20T08:24:17.422Z,99844.73
2022-11-20T08:28:22.131Z,99848.42
2022-11-20T08:32:25.924Z,99842.24
2022-11-20T08:36:29.619Z,99836.55
2022-11-20T08:40:33.599Z,99840.52
2022-11-20T08:44:36.923Z,99841.31
2022-11-20T08:48:40.251Z,99837.09
2022-11-20T08:52:44.370Z,99828.09
2022-11-20T08:56:47.669Z,99825.76
2022-11-20T09:00:51.111Z,99825.73
2022-11-20T09:04:57.321Z,99823.98
2022-11-20T09:09:06.118Z,99814.74
2022-11-20T09:13:10.219Z,99805.39
2022-11-20T09:17:16.539Z,99798.08
2022-11-20T09:21:19.942Z,99798.47
2022-11-20T09:25:23.543Z,99796.52
2022-11-20T09:29:26.862Z,99794.02
2022-11-20T09:33:30.176Z,99794.80
2022-11-20T09:37:33.525Z,99787.90
2022-11-20T09:41:55.323Z,99784.38
2022-11-20T09:46:30.473Z,99787.02
2022-11-20T09:50:44.956Z,99780.80
2022-11-20T09:54:48.455Z,99772.25
2022-11-20T09:58:54.870Z,99765.19
2022-11-20T10:03:24.250Z,99759.56
2022-11-20T10:07:33.808Z,99757.52
2022-11-20T10:12:05.252Z,99754.80
2022-11-20T10:16:29.839Z,99759.98
2022-11-20T10:20:58.504Z,99758.86
2022-11-20T10:25:09.236Z,99752.97
2022-11-20T10:29:16.963Z,99750.98
2022-11-20T10:33:29.116Z,99751.23
2022-11-20T10:37:44.213Z,99746.70
2022-11-20T10:41:52.511Z,99738.80
2022-11-20T10:46:09.955Z,99741.21
2022-11-20T10:50:22.948Z,99738.85
2022-11-20T10:54:35.532Z,99739.77
2022-11-20T10:59:28.057Z,99740.68
2022-11-20T11:03:33.004Z,99735.50
2022-11-20T11:07:39.998Z,99734.38
2022-11-20T11:11:43.487Z,99735.19
2022-11-20T11:15:46.919Z,99735.95
2022-11-20T11:20:08.135Z,99731.45
2022-11-20T11:24:41.582Z,99738.56
2022-11-20T11:29:00.686Z,99732.20
2022-11-20T11:33:11.464Z,99724.80
2022-11-20T11:37:23.174Z,99718.96
2022-11-20T11:41:32.775Z,99717.58
2022-11-20T11:45:37.463Z,99718.63
2022-11-20T11:49:41.550Z,99712.85
2022-11-20T11:53:44.994Z,99710.63
2022-11-20T11:57:55.478Z,99709.43
2022-11-20T12:02:04.293Z,99703.52
2022-11-20T12:06:12.833Z,99702.13
2022-11-20T12:10:38.071Z,99700.38
2022-11-20T12:14:52.299Z,99698.57
2022-11-20T12:18:55.799Z,99694.73
2022-11-20T12:23:29.881Z,99694.31
2022-11-20T12:28:01.167Z,99682.61
2022-11-20T12:32:16.776Z,99673.36
2022-11-20T12:36:39.605Z,99663.85
2022-11-20T12:40:43.013Z,99662.54
2022-11-20T12:45:21.510Z,99666.77
2022-11-20T12:49:50.655Z,99669.10
2022-11-20T12:54:24.648Z,99671.05
2022-11-20T12:58:50.307Z,99665.28
2022-11-20T13:02:56.509Z,99654.90
2022-11-20T13:07:01.956Z,99649.16
2022-11-20T13:11:36.453Z,99647.73
2022-11-20T13:15:53.219Z,99648.53
2022-11-20T13:19:59.966Z,99645.81
2022-11-20T13:24:28.084Z,99645.65
2022-11-20T13:28:32.084Z,99642.73
2022-11-20T13:32:35.461Z,99648.84
2022-11-20T13:36:51.404Z,99648.15
2022-11-20T13:40:56.835Z,99652.15
2022-11-20T13:45:10.187Z,99655.98
2022-11-20T13:49:45.954Z,99656.30
2022-11-20T13:53:49.227Z,99656.46
2022-11-20T13:58:22.462Z,99651.22
2022-11-20T14:02:29.219Z,99650.62
2022-11-20T14:06:39.996Z,99649.83
2022-11-20T14:10:43.406Z,99649.52
2022-11-20T14:14:55.687Z,99636.17
2022-11-20T14:19:18.625Z,99626.96
2022-11-20T14:23:30.598Z,99624.09
2022-11-20T14:27:40.155Z,99625.40
2022-11-20T14:31:47.877Z,99625.66
2022-11-20T15:11:20.868Z,99596.45
2022-11-20T15:15:36.245Z,99587.11
2022-11-20T15:19:39.545Z,99580.86
2022-11-20T15:23:43.886Z,99581.77
2022-11-20T15:27:50.648Z,99575.85
2022-11-20T15:31:55.458Z,99571.34
2022-11-20T15:35:58.800Z,99562.84
2022-11-20T15:40:02.128Z,99553.94
2022-11-20T15:44:06.355Z,99552.91
2022-11-20T15:48:16.326Z,99557.64
2022-11-20T15:52:19.636Z,99554.32
2022-11-20T15:56:23.772Z,99555.70
2022-11-20T16:00:27.115Z,99548.92
2022-11-20T16:04:31.071Z,99551.56
2022-11-20T16:08:34.964Z,99547.95
2022-11-20T16:12:57.119Z,99549.14
2022-11-20T16:17:00.476Z,99559.10
2022-11-20T16:21:04.543Z,99560.19
2022-11-20T16:25:08.337Z,99558.35
2022-11-20T16:29:11.993Z,99557.33
2022-11-20T16:33:18.432Z,99563.13
2022-11-20T16:37:22.587Z,99559.11
2022-11-20T16:41:27.593Z,99564.80
2022-11-20T16:45:33.846Z,99561.57
2022-11-20T16:49:37.696Z,99564.05
2022-11-20T16:53:41.808Z,99561.33
2022-11-20T16:57:45.321Z,99557.09
2022-11-20T17:01:49.091Z,99547.83
2022-11-20T17:05:52.649Z,99537.70
2022-11-20T17:09:56.231Z,99531.81
2022-11-20T17:14:03.859Z,99532.23
2022-11-20T17:18:07.333Z,99529.73
2022-11-20T17:22:10.695Z,99529.30
2022-11-20T17:26:22.036Z,99526.50
2022-11-20T17:30:25.419Z,99530.85
2022-11-20T17:34:28.989Z,99528.48
2022-11-20T17:38:32.778Z,99526.84
2022-11-20T17:42:37.155Z,99532.11
2022-11-20T17:46:41.045Z,99526.27
2022-11-20T17:50:44.426Z,99518.02
2022-11-20T17:54:47.709Z,99516.84
2022-11-20T17:58:51.792Z,99513.77
2022-11-20T18:02:56.107Z,99509.55
2022-11-20T18:06:59.507Z,99503.52
2022-11-20T18:11:13.950Z,99486.23
2022-11-20T18:15:17.505Z,99473.80
2022-11-20T18:19:23.934Z,99475.80
2022-11-20T18:23:27.406Z,99479.02
2022-11-20T18:27:32.076Z,99468.56
2022-11-20T18:31:35.455Z,99463.29
2022-11-20T18:35:43.120Z,99466.40
2022-11-20T18:39:46.718Z,99461.25
2022-11-20T18:44:08.539Z,99457.63
2022-11-20T18:48:11.950Z,99459.11
2022-11-20T18:52:15.389Z,99466.62
2022-11-20T18:56:18.888Z,99462.44
2022-11-20T19:00:24.569Z,99456.26
2022-11-20T19:04:28.402Z,99447.63
2022-11-20T19:08:35.247Z,99439.52
2022-11-20T19:12:38.793Z,99433.34
2022-11-20T19:16:43.633Z,99433.05
2022-11-20T19:20:47.071Z,99424.70
2022-11-20T19:24:50.556Z,99419.96
2022-11-20T19:28:54.564Z,99413.89
2022-11-20T19:32:58.316Z,99413.61
2022-11-20T19:37:01.803Z,99410.45
2022-11-20T19:41:06.442Z,99413.80
2022-11-20T19:45:11.006Z,99407.03
2022-11-20T19:49:15.546Z,99408.63
2022-11-20T19:53:19.015Z,99406.66
2022-11-20T19:57:22.594Z,99404.92
2022-11-20T20:01:29.165Z,99408.85
2022-11-20T20:05:34.514Z,99418.52
2022-11-20T20:09:37.907Z,99419.21
2022-11-20T20:13:43.470Z,99419.98
2022-11-20T20:17:46.918Z,99425.02
2022-11-20T20:21:50.404Z,99429.64
2022-11-20T20:25:54.016Z,99433.42
2022-11-20T20:29:57.322Z,99423.38
2022-11-20T20:34:03.548Z,99416.52
2022-11-20T20:38:06.932Z,99408.70
2022-11-20T20:42:10.348Z,99404.09
2022-11-20T20:46:13.919Z,99402.90
2022-11-20T20:50:17.511Z,99400.09
2022-11-20T20:54:20.827Z,99397.77
2022-11-20T20:58:25.356Z,99403.54
2022-11-20T21:02:28.734Z,99403.61
2022-11-20T21:06:32.092Z,99404.30
2022-11-20T21:10:35.561Z,99407.59
2022-11-20T21:14:39.056Z,99408.61
2022-11-20T21:18:42.449Z,99405.92
2022-11-20T21:22:45.785Z,99409.73
2022-11-20T21:26:52.648Z,99413.63
2022-11-20T21:31:06.814Z,99412.48
2022-11-20T21:35:10.449Z,99418.45
2022-11-20T21:39:14.889Z,99415.98
2022-11-20T21:43:18.991Z,99412.40
2022-11-20T21:47:22.309Z,99411.38
2022-11-20T21:51:28.179Z,99409.45
2022-11-20T21:55:32.761Z,99407.83
2022-11-20T21:59:36.137Z,99407.59
2022-11-20T22:03:40.366Z,99407.52
2022-11-20T22:07:45.212Z,99399.06
2022-11-20T22:11:48.523Z,99396.77
2022-11-20T22:16:00.754Z,99401.10
2022-11-20T22:20:05.019Z,99402.61
2022-11-20T22:24:19.716Z,99402.69
2022-11-20T22:28:22.991Z,99407.34
2022-11-20T22:32:26.409Z,99405.58
2022-11-20T22:36:31.244Z,99404.55
2022-11-20T22:40:34.600Z,99400.70
2022-11-20T22:44:37.875Z,99403.40
2022-11-20T22:48:44.526Z,99405.20
2022-11-20T22:52:47.885Z,99407.88
2022-11-20T22:56:51.230Z,99406.88
2022-11-20T23:00:54.506Z,99398.70
2022-11-20T23:04:57.904Z,99389.55
2022-11-20T23:09:01.616Z,99384.34
2022-11-20T23:13:05.003Z,99390.79
2022-11-20T23:17:08.296Z,99392.55
2022-11-20T23:21:17.405Z,99392.48
2022-11-20T23:25:20.680Z,99396.64
2022-11-20T23:29:24.092Z,99400.35
2022-11-20T23:33:27.913Z,99404.54
2022-11-20T23:37:31.262Z,99405.70
2022-11-20T23:41:34.977Z,99400.23
2022-11-20T23:45:40.086Z,99399.44
2022-11-20T23:49:43.411Z,99392.93
2022-11-20T23:53:46.733Z,99389.66
2022-11-20T23:57:53.192Z,99383.83
